createdAt,value
2019-03-20T00:01:25.039Z,5.07
2019-03-20T00:03:56.478Z,5.15
2019-03-20T00:06:27.960Z,5.22
2019-03-20T00:09:00.122Z,5.09
2019-03-20T00:11:32.118Z,5.09
2019-03-20T00:14:05.228Z,4.94
2019-03-20T00:16:37.109Z,5.09
2019-03-20T00:19:08.441Z,5.08
2019-03-20T00:21:41.302Z,4.92
2019-03-20T00:24:12.674Z,4.81
2019-03-20T00:26:43.927Z,4.69
2019-03-20T00:29:15.203Z,4.69
2019-03-20T00:31:46.583Z,4.95
2019-03-20T00:34:18.239Z,4.84
2019-03-20T00:36:49.444Z,4.64
2019-03-20T00:39:20.683Z,4.66
2019-03-20T00:41:51.896Z,4.67
2019-03-20T00:44:31.233Z,4.56
2019-03-20T00:47:02.822Z,4.66
2019-03-20T00:49:34.108Z,4.64
2019-03-20T00:52:05.315Z,4.55
2019-03-20T00:54:39.362Z,4.54
2019-03-20T00:57:10.655Z,4.58
2019-03-20T00:59:42.160Z,4.76
2019-03-20T01:02:13.433Z,4.64
2019-03-20T01:04:44.651Z,4.57
2019-03-20T01:07:17.234Z,4.81
2019-03-20T01:09:50.028Z,4.71
2019-03-20T01:12:22.708Z,4.62
2019-03-20T01:14:54.179Z,4.54
2019-03-20T01:17:25.454Z,4.64
2019-03-20T01:19:56.773Z,4.60
2019-03-20T01:22:29.183Z,4.70
2019-03-20T01:25:00.548Z,4.70
2019-03-20T01:27:31.792Z,4.53
2019-03-20T01:30:03.161Z,4.63
2019-03-20T01:32:34.713Z,4.63
2019-03-20T01:35:07.783Z,4.64
2019-03-20T01:37:39.072Z,4.69
2019-03-20T01:40:10.337Z,4.61
2019-03-20T01:42:41.910Z,4.62
2019-03-20T01:45:13.416Z,4.59
2019-03-20T01:47:44.694Z,4.56
2019-03-20T01:50:16.515Z,4.57
2019-03-20T01:52:48.119Z,4.67
2019-03-20T01:55:19.374Z,4.64
2019-03-20T01:57:50.952Z,4.79
2019-03-20T02:00:22.319Z,4.70
2019-03-20T02:02:53.775Z,4.65
2019-03-20T02:05:35.078Z,4.66
2019-03-20T02:08:03.561Z,4.56
2019-03-20T02:10:34.843Z,4.52
2019-03-20T02:13:06.070Z,4.42
2019-03-20T02:15:39.513Z,4.48
2019-03-20T02:18:11.023Z,4.47
2019-03-20T02:20:42.319Z,4.61
2019-03-20T02:23:13.514Z,4.47
2019-03-20T02:25:44.816Z,4.55
2019-03-20T02:28:16.173Z,4.64
2019-03-20T02:30:47.403Z,4.84
2019-03-20T02:33:18.523Z,4.69
2019-03-20T02:35:51.713Z,4.85
2019-03-20T02:38:22.636Z,4.65
2019-03-20T02:40:53.871Z,4.72
2019-03-20T02:43:24.986Z,4.68
2019-03-20T02:45:57.070Z,4.81
2019-03-20T02:48:29.374Z,4.77
2019-03-20T02:51:00.632Z,4.78
2019-03-20T02:53:33.385Z,4.88
2019-03-20T02:56:04.745Z,4.86
2019-03-20T02:58:36.090Z,4.84
2019-03-20T03:01:07.643Z,4.80
2019-03-20T03:03:38.894Z,4.97
2019-03-20T03:06:10.515Z,5.21
2019-03-20T03:08:42.070Z,4.97
2019-03-20T03:11:13.714Z,4.82
2019-03-20T03:13:44.872Z,4.81
2019-03-20T03:16:16.091Z,4.80
2019-03-20T03:18:47.233Z,4.71
2019-03-20T03:21:18.378Z,4.87
2019-03-20T03:23:50.288Z,4.82
2019-03-20T03:26:21.438Z,4.81
2019-03-20T03:28:53.007Z,4.88
2019-03-20T03:31:24.455Z,5.00
2019-03-20T03:33:55.974Z,5.01
2019-03-20T03:36:27.171Z,4.94
2019-03-20T03:38:58.398Z,4.82
2019-03-20T03:41:30.089Z,4.87
2019-03-20T03:44:01.348Z,4.92
2019-03-20T03:46:32.549Z,5.00
2019-03-20T03:49:05.053Z,4.90
2019-03-20T03:51:36.227Z,4.93
2019-03-20T03:54:07.402Z,5.05
2019-03-20T03:56:38.736Z,4.99
2019-03-20T03:59:10.499Z,4.98
2019-03-20T04:01:41.771Z,5.17
2019-03-20T04:04:12.973Z,5.08
2019-03-20T04:06:44.297Z,5.13
2019-03-20T04:09:15.492Z,5.17
2019-03-20T04:11:46.763Z,5.05
2019-03-20T04:14:18.017Z,5.04
2019-03-20T04:16:49.872Z,4.99
2019-03-20T04:19:21.085Z,5.18
2019-03-20T04:21:52.220Z,5.01
2019-03-20T04:24:23.434Z,4.92
2019-03-20T04:26:54.654Z,5.03
2019-03-20T04:29:25.904Z,5.02
2019-03-20T04:31:57.958Z,5.17
2019-03-20T04:34:30.965Z,5.00
2019-03-20T04:37:03.202Z,5.06
2019-03-20T04:39:35.472Z,5.16
2019-03-20T04:42:06.675Z,4.95
2019-03-20T04:44:39.912Z,5.02
2019-03-20T04:47:11.092Z,5.06
2019-03-20T04:49:43.750Z,4.96
2019-03-20T04:52:14.973Z,4.98
2019-03-20T04:54:46.160Z,5.04
2019-03-20T04:57:18.437Z,5.09
2019-03-20T04:59:49.950Z,5.17
2019-03-20T05:02:21.574Z,5.20
2019-03-20T05:04:52.891Z,5.02
2019-03-20T05:07:24.074Z,5.07
2019-03-20T05:09:55.434Z,5.09
2019-03-20T05:12:27.527Z,5.15
2019-03-20T05:14:58.820Z,5.07
2019-03-20T05:17:29.997Z,5.06
2019-03-20T05:20:01.186Z,5.23
2019-03-20T05:22:32.384Z,5.26
2019-03-20T05:25:03.532Z,5.27
2019-03-20T05:27:35.130Z,5.19
2019-03-20T05:30:06.962Z,5.35
2019-03-20T05:32:38.194Z,5.29
2019-03-20T05:35:10.469Z,5.27
2019-03-20T05:37:41.887Z,5.28
2019-03-20T05:40:13.591Z,5.25
2019-03-20T05:42:45.365Z,5.37
2019-03-20T05:45:16.821Z,5.27
2019-03-20T05:47:48.488Z,5.23
2019-03-20T05:50:19.803Z,5.31
2019-03-20T05:52:51.025Z,5.35
2019-03-20T05:55:22.359Z,5.35
2019-03-20T05:57:53.640Z,5.65
2019-03-20T06:00:32.424Z,5.47
2019-03-20T06:03:03.669Z,5.55
2019-03-20T06:05:34.887Z,5.57
2019-03-20T06:08:06.180Z,5.67
2019-03-20T06:10:37.587Z,5.55
2019-03-20T06:13:09.907Z,5.58
2019-03-20T06:15:41.140Z,5.66
2019-03-20T06:18:12.763Z,5.71
2019-03-20T06:20:44.000Z,5.73
2019-03-20T06:23:17.830Z,5.96
2019-03-20T06:25:51.337Z,5.83
2019-03-20T06:28:22.368Z,5.87
2019-03-20T06:30:53.704Z,5.93
2019-03-20T06:33:24.870Z,5.86
2019-03-20T06:35:56.944Z,5.95
2019-03-20T06:38:29.516Z,6.00
2019-03-20T06:41:04.868Z,6.07
2019-03-20T06:43:37.380Z,6.11
2019-03-20T06:46:08.539Z,5.98
2019-03-20T06:48:39.944Z,6.16
2019-03-20T06:51:14.337Z,6.10
2019-03-20T06:53:45.649Z,6.15
2019-03-20T06:56:16.932Z,6.31
2019-03-20T06:58:50.231Z,6.34
2019-03-20T07:01:27.172Z,6.39
2019-03-20T07:04:42.515Z,6.33
2019-03-20T07:07:43.554Z,6.35
2019-03-20T07:10:14.421Z,6.49
2019-03-20T07:12:45.723Z,6.56
2019-03-20T07:15:16.963Z,6.49
2019-03-20T07:17:48.408Z,6.71
2019-03-20T07:20:19.841Z,6.62
2019-03-20T07:22:51.036Z,6.63
2019-03-20T07:25:22.454Z,6.62
2019-03-20T07:27:54.752Z,6.75
2019-03-20T07:30:26.118Z,6.84
2019-03-20T07:32:57.952Z,6.87
2019-03-20T07:35:32.011Z,6.91
2019-03-20T07:38:03.350Z,7.00
2019-03-20T07:40:34.557Z,6.94
2019-03-20T07:43:09.054Z,7.03
2019-03-20T07:45:39.119Z,7.02
2019-03-20T07:48:21.245Z,7.08
2019-03-20T07:50:43.273Z,7.21
2019-03-20T07:53:15.179Z,7.27
2019-03-20T07:55:46.443Z,7.36
2019-03-20T07:58:17.756Z,7.37
2019-03-20T08:00:48.999Z,7.24
2019-03-20T08:03:20.262Z,7.22
2019-03-20T08:05:51.451Z,7.37
2019-03-20T08:08:24.617Z,7.30
2019-03-20T08:10:56.872Z,7.35
2019-03-20T08:13:28.219Z,7.49
2019-03-20T08:15:59.971Z,7.68
2019-03-20T08:18:31.704Z,7.79
2019-03-20T08:21:02.723Z,8.03
2019-03-20T08:23:34.588Z,7.94
2019-03-20T08:26:06.633Z,7.94
2019-03-20T08:28:37.892Z,7.87
2019-03-20T08:31:09.236Z,7.93
2019-03-20T08:33:40.473Z,7.95
2019-03-20T08:36:11.863Z,7.99
2019-03-20T08:38:43.141Z,8.01
2019-03-20T08:41:14.392Z,7.98
2019-03-20T08:43:45.785Z,7.89
2019-03-20T08:46:17.109Z,8.08
2019-03-20T08:48:48.776Z,8.18
2019-03-20T08:51:19.952Z,8.12
2019-03-20T08:53:56.233Z,8.37
2019-03-20T08:56:27.631Z,8.37
2019-03-20T08:58:58.929Z,8.43
2019-03-20T09:01:30.184Z,8.33
2019-03-20T09:04:02.992Z,8.30
2019-03-20T09:06:34.582Z,8.43
2019-03-20T09:09:08.981Z,8.43
2019-03-20T09:11:40.273Z,8.47
2019-03-20T09:14:11.469Z,8.53
2019-03-20T09:16:43.022Z,8.63
2019-03-20T09:19:15.077Z,8.91
2019-03-20T09:21:46.330Z,8.75
2019-03-20T09:24:17.631Z,8.78
2019-03-20T09:26:49.366Z,8.82
2019-03-20T09:29:20.891Z,8.77
2019-03-20T09:31:52.568Z,8.82
2019-03-20T09:34:25.059Z,8.80
2019-03-20T09:36:56.284Z,8.80
2019-03-20T09:39:27.713Z,8.78
2019-03-20T09:41:58.870Z,8.93
2019-03-20T09:44:31.019Z,8.86
2019-03-20T09:47:02.285Z,8.98
2019-03-20T09:49:33.524Z,8.97
2019-03-20T09:52:04.797Z,9.06
2019-03-20T09:54:35.992Z,8.99
2019-03-20T09:57:07.385Z,9.11
2019-03-20T09:59:38.739Z,9.17
2019-03-20T10:02:14.426Z,9.06
2019-03-20T10:04:51.428Z,9.17
2019-03-20T10:07:25.189Z,9.05
2019-03-20T10:09:56.526Z,9.09
2019-03-20T10:12:28.082Z,9.15
2019-03-20T10:14:59.379Z,9.18
2019-03-20T10:17:30.574Z,9.18
2019-03-20T10:20:01.929Z,9.18
2019-03-20T10:22:33.224Z,9.01
2019-03-20T10:25:05.366Z,9.08
2019-03-20T10:27:37.636Z,9.03
2019-03-20T10:30:12.321Z,9.07
2019-03-20T10:32:43.925Z,9.00
2019-03-20T10:35:15.152Z,8.98
2019-03-20T10:37:46.354Z,8.95
2019-03-20T10:40:19.846Z,9.00
2019-03-20T10:42:52.300Z,9.00
2019-03-20T10:45:24.157Z,9.00
2019-03-20T10:47:55.788Z,9.10
2019-03-20T10:50:27.000Z,9.08
2019-03-20T10:52:58.309Z,9.07
2019-03-20T10:55:29.625Z,8.97
2019-03-20T10:58:01.807Z,9.08
2019-03-20T11:00:33.393Z,9.09
2019-03-20T11:03:04.824Z,9.10
2019-03-20T11:05:36.639Z,9.10
2019-03-20T11:08:07.854Z,9.10
2019-03-20T11:10:39.272Z,9.08
2019-03-20T11:13:10.901Z,9.07
2019-03-20T11:15:42.189Z,9.13
2019-03-20T11:18:13.436Z,9.12
2019-03-20T11:20:44.607Z,9.21
2019-03-20T11:23:17.792Z,9.26
2019-03-20T11:25:50.230Z,9.21
2019-03-20T11:28:21.397Z,9.22
2019-03-20T11:30:52.587Z,9.25
2019-03-20T11:33:23.896Z,9.18
2019-03-20T11:35:55.094Z,9.21
2019-03-20T11:38:26.428Z,9.18
2019-03-20T11:40:57.623Z,9.17
2019-03-20T11:43:28.858Z,9.14
2019-03-20T11:46:00.085Z,9.27
2019-03-20T11:48:33.423Z,9.24
2019-03-20T11:51:04.765Z,9.15
2019-03-20T11:53:35.984Z,9.13
2019-03-20T11:56:07.588Z,9.11
2019-03-20T11:58:39.750Z,9.27
2019-03-20T12:01:10.974Z,9.25
2019-03-20T12:03:43.584Z,9.23
2019-03-20T12:06:15.456Z,9.17
2019-03-20T12:08:48.274Z,9.26
2019-03-20T12:11:19.892Z,9.28
2019-03-20T12:13:51.310Z,9.35
2019-03-20T12:16:23.306Z,9.37
2019-03-20T12:18:54.464Z,9.33
2019-03-20T12:21:25.807Z,9.32
2019-03-20T12:23:57.243Z,9.38
2019-03-20T12:26:28.479Z,9.48
2019-03-20T12:28:59.844Z,9.51
2019-03-20T12:31:31.114Z,9.47
2019-03-20T12:34:02.411Z,9.50
2019-03-20T12:36:33.606Z,9.46
2019-03-20T12:39:08.358Z,9.51
2019-03-20T12:41:39.659Z,9.59
2019-03-20T12:44:10.982Z,9.62
2019-03-20T12:46:42.235Z,9.67
2019-03-20T12:49:13.399Z,9.49
2019-03-20T12:51:44.640Z,9.60
2019-03-20T12:54:15.902Z,9.65
2019-03-20T12:56:50.748Z,9.62
2019-03-20T12:59:21.981Z,9.58
2019-03-20T13:01:53.250Z,9.76
2019-03-20T13:04:24.819Z,9.61
2019-03-20T13:06:56.011Z,9.60
2019-03-20T13:09:27.213Z,9.53
2019-03-20T13:11:59.028Z,9.53
2019-03-20T13:14:30.172Z,9.69
2019-03-20T13:17:01.374Z,9.71
2019-03-20T13:19:33.185Z,9.61
2019-03-20T13:24:55.426Z,9.68
2019-03-20T13:27:26.844Z,9.64
2019-03-20T13:29:58.092Z,9.64
2019-03-20T13:32:29.388Z,9.66
2019-03-20T13:35:00.608Z,9.64
2019-03-20T13:37:31.820Z,9.67
2019-03-20T13:40:13.635Z,9.69
2019-03-20T13:42:36.392Z,9.78
2019-03-20T13:45:09.989Z,9.70
2019-03-20T13:47:42.932Z,9.73
2019-03-20T13:50:17.230Z,9.72
2019-03-20T13:52:48.460Z,9.72
2019-03-20T13:55:19.660Z,9.69
2019-03-20T13:58:07.368Z,9.76
2019-03-20T14:00:38.601Z,9.78
2019-03-20T14:03:09.920Z,9.72
2019-03-20T14:05:41.173Z,9.84
2019-03-20T14:08:12.706Z,9.92
2019-03-20T14:10:50.274Z,9.90
2019-03-20T14:13:18.938Z,10.06
2019-03-20T14:15:50.340Z,9.97
2019-03-20T14:18:21.541Z,9.99
2019-03-20T14:20:54.035Z,10.01
2019-03-20T14:23:48.752Z,10.00
2019-03-20T14:26:20.041Z,10.06
2019-03-20T14:28:52.594Z,9.95
2019-03-20T14:31:23.923Z,10.05
2019-03-20T14:33:55.212Z,10.09
2019-03-20T14:36:32.376Z,10.17
2019-03-20T14:39:05.104Z,10.04
2019-03-20T14:41:39.318Z,10.08
2019-03-20T14:44:11.054Z,10.12
2019-03-20T14:46:42.289Z,10.10
2019-03-20T14:49:13.547Z,10.18
2019-03-20T14:51:45.433Z,10.30
2019-03-20T14:54:16.605Z,10.24
2019-03-20T14:56:48.667Z,10.29
2019-03-20T14:59:19.969Z,10.22
2019-03-20T15:01:51.232Z,10.19
2019-03-20T15:04:22.416Z,10.25
2019-03-20T15:06:53.667Z,10.16
2019-03-20T15:09:24.777Z,10.30
2019-03-20T15:11:56.231Z,10.15
2019-03-20T15:14:29.041Z,10.17
2019-03-20T15:17:00.368Z,10.18
2019-03-20T15:19:31.620Z,10.19
2019-03-20T15:22:02.858Z,10.18
2019-03-20T15:24:34.157Z,10.21
2019-03-20T15:27:05.603Z,10.22
2019-03-20T15:29:36.836Z,10.21
2019-03-20T15:32:10.792Z,10.14
2019-03-20T15:34:42.027Z,10.21
2019-03-20T15:37:14.178Z,10.12
2019-03-20T15:39:46.748Z,10.09
2019-03-20T15:42:18.024Z,10.04
2019-03-20T15:44:49.191Z,10.08
2019-03-20T15:47:23.094Z,10.16
2019-03-20T15:49:54.228Z,10.16
2019-03-20T15:52:26.671Z,10.17
2019-03-20T15:54:59.483Z,10.17
2019-03-20T15:57:32.527Z,10.19
2019-03-20T16:00:08.219Z,10.24
2019-03-20T16:02:40.348Z,10.15
2019-03-20T16:05:12.774Z,10.13
2019-03-20T16:07:43.976Z,10.23
2019-03-20T16:10:19.751Z,10.34
2019-03-20T16:12:53.798Z,10.28
2019-03-20T16:15:26.705Z,10.27
2019-03-20T16:18:03.350Z,10.21
2019-03-20T16:20:36.414Z,10.32
2019-03-20T16:23:07.618Z,10.30
2019-03-20T16:25:38.820Z,10.30
2019-03-20T16:28:11.610Z,10.18
2019-03-20T16:30:42.947Z,10.14
2019-03-20T16:33:14.388Z,10.19
2019-03-20T16:35:46.477Z,10.18
2019-03-20T16:38:18.364Z,10.23
2019-03-20T16:40:49.701Z,10.15
2019-03-20T16:43:24.717Z,10.15
2019-03-20T16:45:56.051Z,10.25
2019-03-20T16:48:32.035Z,10.18
2019-03-20T16:51:03.199Z,10.22
2019-03-20T16:53:39.097Z,10.14
2019-03-20T16:56:38.268Z,10.12
2019-03-20T16:59:15.659Z,10.22
2019-03-20T17:02:08.188Z,10.23
2019-03-20T17:04:43.362Z,10.27
2019-03-20T17:07:14.903Z,10.19
2019-03-20T17:09:46.173Z,10.21
2019-03-20T17:12:19.241Z,10.11
2019-03-20T17:14:53.279Z,10.24
2019-03-20T17:17:27.833Z,10.26
2019-03-20T17:19:59.056Z,10.16
2019-03-20T17:22:30.255Z,10.09
2019-03-20T17:25:01.519Z,10.07
2019-03-20T17:27:32.744Z,10.12
2019-03-20T17:30:04.666Z,10.12
2019-03-20T17:32:35.972Z,10.17
2019-03-20T17:35:09.294Z,10.13
2019-03-20T17:37:40.463Z,10.13
2019-03-20T17:40:13.331Z,10.19
2019-03-20T17:42:44.571Z,10.18
2019-03-20T17:45:16.982Z,10.12
2019-03-20T17:47:49.670Z,10.12
2019-03-20T17:50:22.822Z,10.08
2019-03-20T17:52:56.827Z,10.07
2019-03-20T17:55:28.357Z,10.01
2019-03-20T17:57:59.657Z,10.04
2019-03-20T18:00:44.975Z,10.10
2019-03-20T18:03:16.224Z,10.05
2019-03-20T18:05:48.822Z,10.04
2019-03-20T18:08:20.621Z,10.04
2019-03-20T18:10:52.794Z,10.01
2019-03-20T18:13:24.109Z,9.97
2019-03-20T18:15:55.565Z,9.97
2019-03-20T18:18:26.890Z,9.96
2019-03-20T18:20:58.117Z,9.98
2019-03-20T18:23:29.306Z,9.84
2019-03-20T18:26:00.583Z,9.90
2019-03-20T18:28:31.800Z,9.97
2019-03-20T18:31:03.039Z,9.95
2019-03-20T18:33:34.342Z,9.89
2019-03-20T18:36:05.607Z,9.87
2019-03-20T18:38:37.283Z,9.77
2019-03-20T18:41:08.496Z,9.85
2019-03-20T18:43:39.727Z,9.79
2019-03-20T18:46:10.918Z,9.68
2019-03-20T18:48:42.422Z,9.60
2019-03-20T18:51:14.261Z,9.77
2019-03-20T18:53:47.683Z,9.72
2019-03-20T18:56:19.016Z,9.70
2019-03-20T18:58:50.337Z,9.73
2019-03-20T19:01:21.558Z,9.59
2019-03-20T19:03:52.916Z,9.61
2019-03-20T19:06:25.947Z,9.59
2019-03-20T19:08:57.281Z,9.63
2019-03-20T19:11:28.582Z,9.51
2019-03-20T19:14:01.121Z,9.44
2019-03-20T19:16:32.657Z,9.44
2019-03-20T19:19:04.056Z,9.53
2019-03-20T19:21:35.407Z,9.58
2019-03-20T19:24:06.607Z,9.49
2019-03-20T19:26:38.223Z,9.44
2019-03-20T19:29:09.810Z,9.46
2019-03-20T19:31:41.074Z,9.50
2019-03-20T19:34:12.331Z,9.41
2019-03-20T19:36:43.749Z,9.56
2019-03-20T19:39:14.882Z,9.49
2019-03-20T19:41:46.235Z,9.51
2019-03-20T19:44:17.501Z,9.49
2019-03-20T19:46:49.022Z,9.57
2019-03-20T19:49:20.250Z,9.52
2019-03-20T19:51:51.548Z,9.65
2019-03-20T19:54:22.818Z,9.58
2019-03-20T19:56:54.041Z,9.46
2019-03-20T19:59:25.489Z,9.40
2019-03-20T20:01:56.952Z,9.49
2019-03-20T20:04:28.604Z,9.41
2019-03-20T20:07:00.167Z,9.46
2019-03-20T20:09:32.673Z,9.51
2019-03-20T20:12:04.591Z,9.41
2019-03-20T20:14:35.841Z,9.39
2019-03-20T20:17:07.166Z,9.52
2019-03-20T20:19:38.317Z,9.45
2019-03-20T20:22:09.637Z,9.48
2019-03-20T20:24:40.943Z,9.42
2019-03-20T20:27:12.526Z,9.47
2019-03-20T20:29:43.761Z,9.42
2019-03-20T20:32:15.445Z,9.43
2019-03-20T20:34:46.809Z,9.35
2019-03-20T20:37:18.058Z,9.51
2019-03-20T20:39:49.298Z,9.62
2019-03-20T20:42:20.630Z,9.56
2019-03-20T20:44:51.870Z,9.46
2019-03-20T20:47:23.106Z,9.50
2019-03-20T20:49:57.007Z,9.46
2019-03-20T20:52:28.291Z,9.42
2019-03-20T20:54:59.549Z,9.44
2019-03-20T20:57:30.673Z,9.39
2019-03-20T21:00:02.832Z,9.37
2019-03-20T21:02:34.432Z,9.37
2019-03-20T21:05:06.039Z,9.31
2019-03-20T21:07:37.301Z,9.28
2019-03-20T21:10:09.066Z,9.28
2019-03-20T21:12:42.547Z,9.27
2019-03-20T21:15:34.389Z,9.22
2019-03-20T21:18:57.539Z,9.16
2019-03-20T21:21:35.208Z,9.14
2019-03-20T21:24:26.676Z,9.08
2019-03-20T21:27:41.206Z,9.07
2019-03-20T21:30:47.578Z,9.08
2019-03-20T21:33:53.277Z,9.14
2019-03-20T21:37:12.859Z,9.22
2019-03-20T21:39:44.860Z,9.15
2019-03-20T21:43:06.802Z,9.26
2019-03-20T21:46:10.254Z,9.32
2019-03-20T21:48:42.371Z,9.32
2019-03-20T21:51:20.373Z,9.34
2019-03-20T21:54:39.392Z,9.28
2019-03-20T21:57:34.563Z,9.34
2019-03-20T22:00:27.264Z,9.33
2019-03-20T22:02:59.083Z,9.29
2019-03-20T22:06:15.091Z,9.34
2019-03-20T22:08:47.087Z,9.32
2019-03-20T22:11:45.262Z,9.32
2019-03-20T22:14:17.173Z,9.24
2019-03-20T22:17:32.466Z,9.16
2019-03-20T22:20:46.852Z,9.16
2019-03-20T22:23:43.800Z,9.27
2019-03-20T22:26:56.319Z,9.18
2019-03-20T22:29:28.982Z,9.18
2019-03-20T22:32:50.182Z,9.24
2019-03-20T22:35:49.943Z,9.23
2019-03-20T22:39:23.809Z,9.14
2019-03-20T22:42:18.491Z,9.18
2019-03-20T22:45:16.137Z,9.20
2019-03-20T22:48:37.207Z,9.14
2019-03-20T22:51:35.180Z,9.23
2019-03-20T22:54:41.822Z,9.24
2019-03-20T22:57:31.404Z,9.17
2019-03-20T23:00:03.474Z,9.15
2019-03-20T23:02:42.378Z,9.25
2019-03-20T23:05:14.259Z,9.30
2019-03-20T23:07:46.078Z,9.32
2019-03-20T23:10:17.812Z,9.35
2019-03-20T23:12:50.177Z,9.35
2019-03-20T23:15:22.085Z,9.33
2019-03-20T23:17:53.962Z,9.33
2019-03-20T23:20:26.364Z,9.34
2019-03-20T23:22:58.155Z,9.37
2019-03-20T23:25:29.965Z,9.42
2019-03-20T23:28:02.045Z,9.49
2019-03-20T23:30:34.020Z,9.45
2019-03-20T23:33:06.848Z,9.46
2019-03-20T23:35:38.707Z,9.44
2019-03-20T23:38:10.811Z,9.44
2019-03-20T23:40:42.600Z,9.43
2019-03-20T23:43:14.390Z,9.45
2019-03-20T23:48:46.074Z,9.55
2019-03-20T23:51:19.298Z,9.51
2019-03-20T23:53:53.318Z,9.49
2019-03-20T23:56:26.334Z,9.59
2019-03-20T23:58:58.437Z,9.63
